createdAt,value
2017-08-14T00:00:44.270Z,16.70
2017-08-14T00:03:12.618Z,16.57
2017-08-14T00:05:40.984Z,16.26
2017-08-14T00:08:09.893Z,16.21
2017-08-14T00:10:38.285Z,16.23
2017-08-14T00:13:06.635Z,16.22
2017-08-14T00:15:35.560Z,16.34
2017-08-14T00:18:04.145Z,16.43
2017-08-14T00:20:32.498Z,16.26
2017-08-14T00:23:01.390Z,16.30
2017-08-14T00:25:29.750Z,16.34
2017-08-14T00:27:58.863Z,16.34
2017-08-14T00:30:27.739Z,16.32
2017-08-14T00:32:56.082Z,16.34
2017-08-14T00:35:24.435Z,16.34
2017-08-14T00:37:53.327Z,16.24
2017-08-14T00:40:21.681Z,15.97
2017-08-14T00:42:50.037Z,15.85
2017-08-14T00:45:18.687Z,15.70
2017-08-14T00:47:47.054Z,15.42
2017-08-14T00:50:15.439Z,15.31
2017-08-14T00:52:44.399Z,15.40
2017-08-14T00:55:12.769Z,15.60
2017-08-14T00:57:41.672Z,15.70
2017-08-14T01:00:10.316Z,15.58
2017-08-14T01:02:38.695Z,15.60
2017-08-14T01:05:07.079Z,15.70
2017-08-14T01:07:35.753Z,15.72
2017-08-14T01:10:04.103Z,15.74
2017-08-14T01:12:32.469Z,15.78
2017-08-14T01:15:01.201Z,15.75
2017-08-14T01:17:29.569Z,15.83
2017-08-14T01:19:57.924Z,15.83
2017-08-14T01:22:26.625Z,15.83
2017-08-14T01:24:54.988Z,15.75
2017-08-14T01:27:23.330Z,15.74
2017-08-14T01:29:52.248Z,15.68
2017-08-14T01:32:20.594Z,15.71
2017-08-14T01:34:49.719Z,15.74
2017-08-14T01:37:18.638Z,15.80
2017-08-14T01:39:47.005Z,15.74
2017-08-14T01:42:15.356Z,15.67
2017-08-14T01:44:44.152Z,15.66
2017-08-14T01:47:12.524Z,15.61
2017-08-14T01:49:40.891Z,15.43
2017-08-14T01:52:09.560Z,15.36
2017-08-14T01:54:37.908Z,15.40
2017-08-14T01:57:06.257Z,15.32
2017-08-14T01:59:35.259Z,15.27
2017-08-14T02:02:03.724Z,15.32
2017-08-14T02:04:32.096Z,15.30
2017-08-14T02:07:00.802Z,15.35
2017-08-14T02:09:29.180Z,15.30
2017-08-14T02:11:57.541Z,15.36
2017-08-14T02:14:26.349Z,15.30
2017-08-14T02:16:54.708Z,15.21
2017-08-14T02:19:23.066Z,15.15
2017-08-14T02:21:51.757Z,15.07
2017-08-14T02:24:20.123Z,15.01
2017-08-14T02:26:48.516Z,14.85
2017-08-14T02:29:17.188Z,14.87
2017-08-14T02:31:45.540Z,14.97
2017-08-14T02:34:13.923Z,14.94
2017-08-14T02:36:42.582Z,14.94
2017-08-14T02:39:10.985Z,14.95
2017-08-14T02:41:39.338Z,15.00
2017-08-14T02:44:08.386Z,14.98
2017-08-14T02:46:36.761Z,14.80
2017-08-14T02:49:05.110Z,14.65
2017-08-14T02:51:33.754Z,14.68
2017-08-14T02:54:02.106Z,14.62
2017-08-14T02:56:30.690Z,14.64
2017-08-14T02:58:59.407Z,14.77
2017-08-14T03:01:27.856Z,14.76
2017-08-14T03:03:56.203Z,14.77
2017-08-14T03:06:25.108Z,14.76
2017-08-14T03:08:53.454Z,14.69
2017-08-14T03:11:21.811Z,14.76
2017-08-14T03:13:50.707Z,14.65
2017-08-14T03:16:19.047Z,14.49
2017-08-14T03:18:47.415Z,14.63
2017-08-14T03:21:16.094Z,14.55
2017-08-14T03:23:44.453Z,14.58
2017-08-14T03:26:12.799Z,14.52
2017-08-14T03:28:41.740Z,14.51
2017-08-14T03:31:10.099Z,14.48
2017-08-14T03:33:38.459Z,14.27
2017-08-14T03:36:07.100Z,14.20
2017-08-14T03:38:35.452Z,14.10
2017-08-14T03:41:03.813Z,14.10
2017-08-14T03:43:32.463Z,13.97
2017-08-14T03:46:00.834Z,13.76
2017-08-14T03:48:29.217Z,13.59
2017-08-14T03:50:58.376Z,13.63
2017-08-14T03:53:26.735Z,13.80
2017-08-14T03:55:55.074Z,13.89
2017-08-14T03:58:23.758Z,13.95
2017-08-14T04:00:52.141Z,13.87
2017-08-14T04:03:20.549Z,14.02
2017-08-14T04:05:49.402Z,13.97
2017-08-14T04:08:17.753Z,14.03
2017-08-14T04:10:46.125Z,14.02
2017-08-14T04:13:15.037Z,14.22
2017-08-14T04:15:43.419Z,14.19
2017-08-14T04:18:11.779Z,14.18
2017-08-14T04:20:40.600Z,14.35
2017-08-14T04:23:08.956Z,14.25
2017-08-14T04:25:37.331Z,14.11
2017-08-14T04:28:06.039Z,14.08
2017-08-14T04:30:34.379Z,14.02
2017-08-14T04:33:02.728Z,13.98
2017-08-14T04:35:31.647Z,14.09
2017-08-14T04:38:00.018Z,14.20
2017-08-14T04:40:28.356Z,14.30
2017-08-14T04:42:57.110Z,14.26
2017-08-14T04:45:25.459Z,14.23
2017-08-14T04:47:53.830Z,14.22
2017-08-14T04:50:22.558Z,14.29
2017-08-14T04:52:50.917Z,14.25
2017-08-14T04:55:19.268Z,14.31
2017-08-14T04:57:48.519Z,14.50
2017-08-14T05:00:16.878Z,14.70
2017-08-14T05:02:45.223Z,14.76
2017-08-14T05:05:14.639Z,14.70
2017-08-14T05:07:43.008Z,14.75
2017-08-14T05:10:11.399Z,14.78
2017-08-14T05:12:40.319Z,14.83
2017-08-14T05:15:08.692Z,14.96
2017-08-14T05:17:37.064Z,14.97
2017-08-14T05:20:06.184Z,14.92
2017-08-14T05:22:34.563Z,15.01
2017-08-14T05:25:02.920Z,15.10
2017-08-14T05:27:31.805Z,15.36
2017-08-14T05:30:00.177Z,15.62
2017-08-14T05:32:28.553Z,15.68
2017-08-14T05:34:57.352Z,15.81
2017-08-14T05:37:25.714Z,15.91
2017-08-14T05:39:54.060Z,16.06
2017-08-14T05:42:22.920Z,16.27
2017-08-14T05:44:51.259Z,16.28
2017-08-14T05:47:19.608Z,16.53
2017-08-14T05:49:48.287Z,16.54
2017-08-14T05:52:16.674Z,16.63
2017-08-14T05:54:45.026Z,16.87
2017-08-14T05:57:13.683Z,17.07
2017-08-14T05:59:42.050Z,17.21
2017-08-14T06:02:10.414Z,17.29
2017-08-14T06:04:39.212Z,17.26
2017-08-14T06:07:07.554Z,17.41
2017-08-14T06:09:35.922Z,17.63
2017-08-14T06:12:04.619Z,17.75
2017-08-14T06:14:32.984Z,17.84
2017-08-14T06:17:01.375Z,17.99
2017-08-14T06:19:30.020Z,18.10
2017-08-14T06:21:58.386Z,18.21
2017-08-14T06:24:26.741Z,18.34
2017-08-14T06:26:55.794Z,18.34
2017-08-14T06:29:24.166Z,18.34
2017-08-14T06:31:52.508Z,18.47
2017-08-14T06:34:21.284Z,18.70
2017-08-14T06:36:49.720Z,18.78
2017-08-14T06:39:18.040Z,18.68
2017-08-14T06:41:46.889Z,18.90
2017-08-14T06:44:15.242Z,19.13
2017-08-14T06:46:44.361Z,19.07
2017-08-14T06:49:13.120Z,19.19
2017-08-14T06:54:09.149Z,19.66
2017-08-14T06:56:37.960Z,19.65
2017-08-14T06:59:06.295Z,19.72
2017-08-14T07:01:34.646Z,19.68
2017-08-14T07:04:03.414Z,20.04
2017-08-14T07:06:31.746Z,20.38
2017-08-14T07:09:00.092Z,20.37
2017-08-14T07:11:28.930Z,20.46
2017-08-14T07:13:57.281Z,20.54
2017-08-14T07:16:25.638Z,20.68
2017-08-14T07:18:54.347Z,20.93
2017-08-14T07:21:22.718Z,20.83
2017-08-14T07:23:51.092Z,20.68
2017-08-14T07:26:20.301Z,20.96
2017-08-14T07:28:48.713Z,20.95
2017-08-14T07:31:17.860Z,20.66
2017-08-14T07:33:46.823Z,20.79
2017-08-14T07:36:15.200Z,20.69
2017-08-14T07:38:44.285Z,20.51
2017-08-14T07:41:13.928Z,20.37
2017-08-14T07:43:42.255Z,20.67
2017-08-14T07:46:10.598Z,21.10
2017-08-14T07:48:39.559Z,21.58
2017-08-14T07:51:07.917Z,21.76
2017-08-14T07:53:37.041Z,22.04
2017-08-14T07:56:05.899Z,21.43
2017-08-14T07:58:34.257Z,21.60
2017-08-14T08:01:02.631Z,22.04
2017-08-14T08:03:31.490Z,22.15
2017-08-14T08:05:59.845Z,22.27
2017-08-14T08:08:28.975Z,22.38
2017-08-14T08:10:57.649Z,22.66
2017-08-14T08:13:25.996Z,23.09
2017-08-14T08:15:54.338Z,23.18
2017-08-14T08:18:23.397Z,23.07
2017-08-14T08:20:51.756Z,22.99
2017-08-14T08:23:20.160Z,23.33
2017-08-14T08:25:48.862Z,23.52
2017-08-14T08:28:17.222Z,23.73
2017-08-14T08:30:45.622Z,23.88
2017-08-14T08:33:14.361Z,23.96
2017-08-14T08:35:43.485Z,23.57
2017-08-14T08:38:12.679Z,23.18
2017-08-14T08:40:41.575Z,22.82
2017-08-14T08:43:09.930Z,23.36
2017-08-14T08:45:39.022Z,23.64
2017-08-14T08:48:07.844Z,23.77
2017-08-14T08:50:36.199Z,23.96
2017-08-14T08:53:04.551Z,23.92
2017-08-14T08:55:33.230Z,24.14
2017-08-14T08:58:01.614Z,23.96
2017-08-14T09:00:29.974Z,24.50
2017-08-14T09:02:58.928Z,25.00
2017-08-14T09:05:27.307Z,24.75
2017-08-14T09:07:55.661Z,24.57
2017-08-14T09:10:24.380Z,25.15
2017-08-14T09:12:52.802Z,25.01
2017-08-14T09:15:21.179Z,25.09
2017-08-14T09:17:50.037Z,25.84
2017-08-14T09:20:18.384Z,25.89
2017-08-14T09:22:47.510Z,26.14
2017-08-14T09:25:16.341Z,26.04
2017-08-14T09:27:44.713Z,26.18
2017-08-14T09:30:13.057Z,26.50
2017-08-14T09:32:41.682Z,26.74
2017-08-14T09:35:10.030Z,26.75
2017-08-14T09:37:38.391Z,26.54
2017-08-14T09:40:07.075Z,26.85
2017-08-14T09:42:35.449Z,26.78
2017-08-14T09:45:03.792Z,26.81
2017-08-14T09:47:32.522Z,26.90
2017-08-14T09:50:00.890Z,26.95
2017-08-14T09:52:29.265Z,26.72
2017-08-14T09:54:58.812Z,26.72
2017-08-14T09:57:27.190Z,27.25
2017-08-14T09:59:55.538Z,26.72
2017-08-14T10:02:24.244Z,26.59
2017-08-14T10:04:52.599Z,26.89
2017-08-14T10:07:20.992Z,27.31
2017-08-14T10:09:49.983Z,27.64
2017-08-14T10:12:18.365Z,27.98
2017-08-14T10:14:46.780Z,27.76
2017-08-14T10:17:15.463Z,27.32
2017-08-14T10:19:43.860Z,27.02
2017-08-14T10:22:12.212Z,27.19
2017-08-14T10:24:41.077Z,27.95
2017-08-14T10:27:09.473Z,28.03
2017-08-14T10:29:37.851Z,27.91
2017-08-14T10:32:06.958Z,27.49
2017-08-14T10:34:35.322Z,28.08
2017-08-14T10:37:03.678Z,28.02
2017-08-14T10:39:32.337Z,27.97
2017-08-14T10:42:00.682Z,27.96
2017-08-14T10:44:29.035Z,28.47
2017-08-14T10:46:57.686Z,29.08
2017-08-14T10:49:26.017Z,29.47
2017-08-14T10:51:54.367Z,29.32
2017-08-14T10:54:23.311Z,28.64
2017-08-14T10:56:51.670Z,28.17
2017-08-14T10:59:20.074Z,28.79
2017-08-14T11:01:49.328Z,28.24
2017-08-14T11:04:17.711Z,28.14
2017-08-14T11:06:46.087Z,28.33
2017-08-14T11:09:14.975Z,29.17
2017-08-14T11:11:43.333Z,29.07
2017-08-14T11:14:12.451Z,28.23
2017-08-14T11:16:41.199Z,27.52
2017-08-14T11:19:09.566Z,27.94
2017-08-14T11:21:37.951Z,28.51
2017-08-14T11:24:06.686Z,28.61
2017-08-14T11:26:35.072Z,28.98
2017-08-14T11:29:03.527Z,29.37
2017-08-14T11:31:32.959Z,29.56
2017-08-14T11:34:01.352Z,29.02
2017-08-14T11:36:29.760Z,29.73
2017-08-14T11:38:58.779Z,29.64
2017-08-14T11:41:27.161Z,30.07
2017-08-14T11:43:55.536Z,29.92
2017-08-14T11:46:24.460Z,29.23
2017-08-14T11:48:52.824Z,29.49
2017-08-14T11:51:21.183Z,30.12
2017-08-14T11:53:50.143Z,29.19
2017-08-14T11:56:18.473Z,29.19
2017-08-14T11:58:46.848Z,29.28
2017-08-14T12:01:15.649Z,29.21
2017-08-14T12:03:44.038Z,29.32
2017-08-14T12:06:12.509Z,29.01
2017-08-14T12:08:41.196Z,29.54
2017-08-14T12:11:09.562Z,29.83
2017-08-14T12:13:38.774Z,29.94
2017-08-14T12:16:07.441Z,30.41
2017-08-14T12:18:35.780Z,30.40
2017-08-14T12:21:04.176Z,29.63
2017-08-14T12:23:33.094Z,29.45
2017-08-14T12:26:01.453Z,29.67
2017-08-14T12:28:29.825Z,29.55
2017-08-14T12:30:58.500Z,29.97
2017-08-14T12:33:26.872Z,30.07
2017-08-14T12:35:55.235Z,29.74
2017-08-14T12:38:24.034Z,30.43
2017-08-14T12:40:52.402Z,29.96
2017-08-14T12:43:20.801Z,29.18
2017-08-14T12:45:49.663Z,29.40
2017-08-14T12:48:18.021Z,28.77
2017-08-14T12:50:46.362Z,28.51
2017-08-14T12:53:15.100Z,28.77
2017-08-14T12:55:43.456Z,28.92
2017-08-14T12:58:12.553Z,29.63
2017-08-14T13:00:42.010Z,30.42
2017-08-14T13:03:10.394Z,30.57
2017-08-14T13:05:38.787Z,30.47
2017-08-14T13:08:07.626Z,29.12
2017-08-14T13:10:35.987Z,28.89
2017-08-14T13:13:04.373Z,29.41
2017-08-14T13:15:33.011Z,29.23
2017-08-14T13:18:01.375Z,29.48
2017-08-14T13:20:29.726Z,28.58
2017-08-14T13:23:01.446Z,28.90
2017-08-14T13:25:29.790Z,29.28
2017-08-14T13:27:58.177Z,29.13
2017-08-14T13:30:26.967Z,29.48
2017-08-14T13:32:55.338Z,29.40
2017-08-14T13:35:23.712Z,29.08
2017-08-14T13:37:52.478Z,28.56
2017-08-14T13:40:20.843Z,28.87
2017-08-14T13:42:49.222Z,28.57
2017-08-14T13:45:17.918Z,27.95
2017-08-14T13:47:46.266Z,28.42
2017-08-14T13:50:14.621Z,28.43
2017-08-14T13:52:43.762Z,28.03
2017-08-14T13:55:12.122Z,28.48
2017-08-14T13:57:40.472Z,28.47
2017-08-14T14:00:09.235Z,28.74
2017-08-14T14:02:37.603Z,29.20
2017-08-14T14:05:06.016Z,29.42
2017-08-14T14:07:34.798Z,29.44
2017-08-14T14:10:03.232Z,29.49
2017-08-14T14:12:31.623Z,29.88
2017-08-14T14:15:00.917Z,29.70
2017-08-14T14:17:29.301Z,30.03
2017-08-14T14:19:57.682Z,29.48
2017-08-14T14:22:26.412Z,29.52
2017-08-14T14:24:54.759Z,29.66
2017-08-14T14:27:23.122Z,29.39
2017-08-14T14:29:51.824Z,29.46
2017-08-14T14:32:20.167Z,29.60
2017-08-14T14:34:49.316Z,29.88
2017-08-14T14:37:18.288Z,29.80
2017-08-14T14:39:46.635Z,29.23
2017-08-14T14:42:15.009Z,28.96
2017-08-14T14:44:43.938Z,28.61
2017-08-14T14:47:12.284Z,28.17
2017-08-14T14:49:40.661Z,28.21
2017-08-14T14:52:09.388Z,28.35
2017-08-14T14:54:37.736Z,28.28
2017-08-14T14:57:06.843Z,28.59
2017-08-14T14:59:35.616Z,28.83
2017-08-14T15:02:03.956Z,29.06
2017-08-14T15:04:32.336Z,28.91
2017-08-14T15:07:00.976Z,29.20
2017-08-14T15:09:29.334Z,28.93
2017-08-14T15:11:57.682Z,28.12
2017-08-14T15:14:26.553Z,28.42
2017-08-14T15:16:54.936Z,28.54
2017-08-14T15:19:23.325Z,28.65
2017-08-14T15:21:52.267Z,28.25
2017-08-14T15:24:21.433Z,27.81
2017-08-14T15:26:49.832Z,27.93
2017-08-14T15:29:18.521Z,28.26
2017-08-14T15:31:46.908Z,28.01
2017-08-14T15:34:15.272Z,27.96
2017-08-14T15:36:43.938Z,27.93
2017-08-14T15:39:12.309Z,28.23
2017-08-14T15:41:40.699Z,28.31
2017-08-14T15:44:09.557Z,27.81
2017-08-14T15:46:37.937Z,27.16
2017-08-14T15:49:06.325Z,27.25
2017-08-14T15:51:34.963Z,27.81
2017-08-14T15:54:03.306Z,28.20
2017-08-14T15:56:31.684Z,28.06
2017-08-14T15:59:00.473Z,27.62
2017-08-14T16:01:28.843Z,27.42
2017-08-14T16:03:57.166Z,27.66
2017-08-14T16:06:26.016Z,27.96
2017-08-14T16:08:54.363Z,27.90
2017-08-14T16:11:22.701Z,27.52
2017-08-14T16:13:51.323Z,27.58
2017-08-14T16:16:19.676Z,27.44
2017-08-14T16:18:48.808Z,27.78
2017-08-14T16:21:17.573Z,27.59
2017-08-14T16:23:45.927Z,27.18
2017-08-14T16:26:14.277Z,26.76
2017-08-14T16:28:43.364Z,26.80
2017-08-14T16:31:11.753Z,27.07
2017-08-14T16:33:40.147Z,27.06
2017-08-14T16:36:08.938Z,27.11
2017-08-14T16:38:37.338Z,27.35
2017-08-14T16:41:05.707Z,26.92
2017-08-14T16:43:34.396Z,27.35
2017-08-14T16:46:02.830Z,27.09
2017-08-14T16:48:31.207Z,26.57
2017-08-14T16:51:00.335Z,26.44
2017-08-14T16:53:28.735Z,26.14
2017-08-14T16:55:57.096Z,26.00
2017-08-14T16:58:25.913Z,26.01
2017-08-14T17:00:54.291Z,26.19
2017-08-14T17:03:23.067Z,26.24
2017-08-14T17:05:51.802Z,26.14
2017-08-14T17:08:20.157Z,26.26
2017-08-14T17:10:48.497Z,26.21
2017-08-14T17:13:17.487Z,26.37
2017-08-14T17:15:45.931Z,26.50
2017-08-14T17:18:14.330Z,26.62
2017-08-14T17:20:43.015Z,26.48
2017-08-14T17:23:11.394Z,26.24
2017-08-14T17:25:39.853Z,25.97
2017-08-14T17:28:08.654Z,25.97
2017-08-14T17:30:37.038Z,25.93
2017-08-14T17:33:05.417Z,25.80
2017-08-14T17:35:34.315Z,25.84
2017-08-14T17:38:02.686Z,25.83
2017-08-14T17:40:31.045Z,25.96
2017-08-14T17:42:59.952Z,26.11
2017-08-14T17:45:28.337Z,26.12
2017-08-14T17:47:56.727Z,26.01
2017-08-14T17:50:25.738Z,25.73
2017-08-14T17:52:54.110Z,25.71
2017-08-14T17:55:22.507Z,25.61
2017-08-14T17:57:51.908Z,25.74
2017-08-14T18:00:21.079Z,25.92
2017-08-14T18:02:49.447Z,25.89
2017-08-14T18:05:18.364Z,25.97
2017-08-14T18:07:46.805Z,25.87
2017-08-14T18:10:15.157Z,25.81
2017-08-14T18:12:44.007Z,25.30
2017-08-14T18:15:12.429Z,25.07
2017-08-14T18:17:40.889Z,25.04
2017-08-14T18:20:09.857Z,25.09
2017-08-14T18:22:38.223Z,25.18
2017-08-14T18:25:06.629Z,25.06
2017-08-14T18:27:35.492Z,24.89
2017-08-14T18:30:03.861Z,24.87
2017-08-14T18:32:32.233Z,24.92
2017-08-14T18:35:00.952Z,24.87
2017-08-14T18:37:29.414Z,25.06
2017-08-14T18:39:58.033Z,25.08
2017-08-14T18:42:26.933Z,24.83
2017-08-14T18:44:55.335Z,24.72
2017-08-14T18:47:24.503Z,24.57
2017-08-14T18:49:53.454Z,24.38
2017-08-14T18:52:21.904Z,24.34
2017-08-14T18:54:50.257Z,24.28
2017-08-14T18:57:19.118Z,24.26
2017-08-14T18:59:47.485Z,24.16
2017-08-14T19:02:16.517Z,24.14
2017-08-14T19:04:45.394Z,24.17
2017-08-14T19:07:13.864Z,24.07
2017-08-14T19:09:43.601Z,24.29
2017-08-14T19:12:10.993Z,24.20
2017-08-14T19:14:39.359Z,24.19
2017-08-14T19:17:07.709Z,24.14
2017-08-14T19:19:36.429Z,24.07
2017-08-14T19:22:04.794Z,24.18
2017-08-14T19:24:33.210Z,24.02
2017-08-14T19:27:02.373Z,23.89
2017-08-14T19:29:30.792Z,23.70
2017-08-14T19:31:59.170Z,23.81
2017-08-14T19:34:28.809Z,23.84
2017-08-14T19:36:57.176Z,23.81
2017-08-14T19:39:25.545Z,23.78
2017-08-14T19:41:54.482Z,23.78
2017-08-14T19:44:22.850Z,23.47
2017-08-14T19:46:51.241Z,23.28
2017-08-14T19:49:20.362Z,23.18
2017-08-14T19:51:48.766Z,23.03
2017-08-14T19:54:17.487Z,22.98
2017-08-14T19:56:46.329Z,22.62
2017-08-14T19:59:14.704Z,22.63
2017-08-14T20:01:43.077Z,22.89
2017-08-14T20:04:12.040Z,22.86
2017-08-14T20:06:40.464Z,23.07
2017-08-14T20:09:08.839Z,22.97
2017-08-14T20:11:38.483Z,23.07
2017-08-14T20:14:06.844Z,22.93
2017-08-14T20:16:35.991Z,22.96
2017-08-14T20:19:04.689Z,22.90
2017-08-14T20:21:33.075Z,22.87
2017-08-14T20:24:01.470Z,22.62
2017-08-14T20:26:30.139Z,22.86
2017-08-14T20:28:58.503Z,22.67
2017-08-14T20:31:26.849Z,22.51
2017-08-14T20:33:55.844Z,22.51
2017-08-14T20:36:24.199Z,22.61
2017-08-14T20:38:53.646Z,22.50
2017-08-14T20:41:22.529Z,22.45
2017-08-14T20:43:50.898Z,22.32
2017-08-14T20:46:19.277Z,22.41
2017-08-14T20:48:48.029Z,22.09
2017-08-14T20:51:16.410Z,22.19
2017-08-14T20:53:44.785Z,22.11
2017-08-14T20:56:13.606Z,22.18
2017-08-14T20:58:41.990Z,21.94
2017-08-14T21:01:10.399Z,21.90
2017-08-14T21:03:39.314Z,21.81
2017-08-14T21:06:07.696Z,21.84
2017-08-14T21:08:36.626Z,21.75
2017-08-14T21:11:05.279Z,21.88
2017-08-14T21:13:33.631Z,21.93
2017-08-14T21:16:02.003Z,22.01
2017-08-14T21:18:31.207Z,21.97
2017-08-14T21:20:59.576Z,22.10
2017-08-14T21:23:27.953Z,22.05
2017-08-14T21:25:56.830Z,21.94
2017-08-14T21:28:25.233Z,21.81
2017-08-14T21:30:53.622Z,21.86
2017-08-14T21:33:22.296Z,21.80
2017-08-14T21:35:50.656Z,21.99
2017-08-14T21:38:19.020Z,21.84
2017-08-14T21:40:47.957Z,21.78
2017-08-14T21:43:16.316Z,21.93
2017-08-14T21:45:44.694Z,22.01
2017-08-14T21:48:13.396Z,21.88
2017-08-14T21:50:41.775Z,21.95
2017-08-14T21:53:10.213Z,21.93
2017-08-14T21:55:39.942Z,21.85
2017-08-14T21:58:08.305Z,21.73
2017-08-14T22:00:36.642Z,21.99
2017-08-14T22:03:05.480Z,22.04
2017-08-14T22:05:33.955Z,22.07
2017-08-14T22:08:02.352Z,22.15
2017-08-14T22:10:31.566Z,22.08
2017-08-14T22:13:00.015Z,21.81
2017-08-14T22:15:28.554Z,21.94
2017-08-14T22:17:58.308Z,21.95
2017-08-14T22:20:26.691Z,21.97
2017-08-14T22:22:55.026Z,21.80
2017-08-14T22:25:23.717Z,21.88
2017-08-14T22:27:52.757Z,21.97
2017-08-14T22:30:23.548Z,22.05
2017-08-14T22:32:52.843Z,21.87
2017-08-14T22:35:21.744Z,21.73
2017-08-14T22:37:50.609Z,21.59
2017-08-14T22:40:20.588Z,21.44
2017-08-14T22:42:49.241Z,21.63
2017-08-14T22:45:20.401Z,21.71
2017-08-14T22:47:50.147Z,21.55
2017-08-14T22:50:18.521Z,21.53
2017-08-14T22:52:46.875Z,21.45
2017-08-14T22:55:16.303Z,21.35
2017-08-14T22:57:44.667Z,21.42
2017-08-14T23:00:13.807Z,21.46
2017-08-14T23:02:42.452Z,21.70
2017-08-14T23:05:10.840Z,21.76
2017-08-14T23:07:39.258Z,21.67
2017-08-14T23:10:08.223Z,21.53
2017-08-14T23:12:36.598Z,21.57
2017-08-14T23:15:04.961Z,21.65
2017-08-14T23:17:33.683Z,21.66
2017-08-14T23:20:02.054Z,21.41
2017-08-14T23:22:30.480Z,21.58
2017-08-14T23:24:59.339Z,21.42
2017-08-14T23:27:27.696Z,21.44
2017-08-14T23:29:56.071Z,21.48
2017-08-14T23:32:25.228Z,21.48
2017-08-14T23:34:53.598Z,21.57
2017-08-14T23:37:21.985Z,21.73
2017-08-14T23:39:51.680Z,21.73
2017-08-14T23:42:20.094Z,21.66
2017-08-14T23:44:48.491Z,21.71
2017-08-14T23:47:17.727Z,21.74
2017-08-14T23:49:46.097Z,21.67
2017-08-14T23:52:14.452Z,21.49
2017-08-14T23:54:43.359Z,21.45
2017-08-14T23:57:11.777Z,21.64
2017-08-14T23:59:40.154Z,21.65
